Time;durP1;ratioP1;P1;durP2;ratioP2;P2;SDS_P1;SDS_P2;PMS_P1;PMS_P2;Temp;Humidity;BMP_temperature;BMP_pressure;BME280_temperature;BME280_humidity;BME280_pressure;Samples;Min_cycle;Max_cycle;Signal;HPM_P1;HPM_P2
2021/12/17 00:05:04;;;;;;;55.05;19.15;;;;;;;5.58;100.00;101499.19;5078132;28;20400;-90
2021/12/17 00:07:35;;;;;;;123.68;17.90;;;;;;;5.53;100.00;101500.19;5090875;28;20455;-90
2021/12/17 00:10:10;;;;;;;108.53;16.15;;;;;;;5.21;100.00;101503.53;5057860;28;20423;-89
2021/12/17 00:12:38;;;;;;;80.03;15.70;;;;;;;5.30;100.00;101496.00;5074059;28;20404;-90
2021/12/17 00:15:07;;;;;;;80.72;16.10;;;;;;;5.46;100.00;101505.44;5074361;28;20396;-90
2021/12/17 00:17:49;;;;;;;64.03;14.27;;;;;;;5.29;100.00;101493.56;5091139;28;20770;-89
2021/12/17 00:51:36;;;;;;;48.63;15.95;;;;;;;5.48;100.00;101496.78;5041524;28;20433;-89
2021/12/17 00:53:50;;;;;;;61.15;15.93;;;;;;;5.28;100.00;101484.44;5074312;28;20392;-89
2021/12/17 00:56:18;;;;;;;41.55;15.57;;;;;;;5.44;100.00;101493.84;5073975;28;20430;-89
2021/12/17 00:58:46;;;;;;;32.97;15.10;;;;;;;5.56;100.00;101488.41;5074212;28;20382;-89
2021/12/17 01:01:15;;;;;;;42.08;15.70;;;;;;;5.50;100.00;101484.19;5057795;28;20488;-90
2021/12/17 01:03:43;;;;;;;39.33;14.73;;;;;;;5.22;100.00;101479.41;5074193;28;20419;-89
2021/12/17 01:06:10;;;;;;;49.17;15.98;;;;;;;5.31;100.00;101485.72;5073990;28;20405;-89
2021/12/17 01:08:39;;;;;;;53.75;15.45;;;;;;;5.14;100.00;101475.50;5074257;28;20485;-89
2021/12/17 01:11:09;;;;;;;57.92;12.95;;;;;;;4.96;100.00;101460.06;5074488;28;20389;-89
2021/12/17 01:14:06;;;;;;;37.75;13.98;;;;;;;5.12;100.00;101477.78;5073871;28;20394;-89
2021/12/17 01:16:54;;;;;;;51.13;14.35;;;;;;;5.01;100.00;101450.75;5073914;28;20477;-88
2021/12/17 01:40:48;;;;;;;91.22;16.73;;;;;;;4.89;100.00;101490.19;5090490;28;20382;-89
2021/12/17 01:42:51;;;;;;;45.33;15.90;;;;;;;5.02;100.00;101466.22;5086987;28;20398;-89
2021/12/17 01:45:19;;;;;;;47.60;16.08;;;;;;;4.96;100.00;101473.91;5056694;28;20386;-89
2021/12/17 01:47:48;;;;;;;55.45;17.48;;;;;;;5.06;100.00;101489.34;5056629;28;20406;-88
2021/12/17 01:56:04;;;;;;;41.63;14.75;;;;;;;4.99;100.00;101489.88;5090195;28;20436;-89
2021/12/17 02:01:22;;;;;;;47.72;15.68;;;;;;;4.67;100.00;101473.78;5089721;28;20440;-89
2021/12/17 02:03:51;;;;;;;43.90;15.15;;;;;;;4.60;100.00;101469.88;5109881;28;20388;-88
2021/12/17 02:06:21;;;;;;;54.67;16.25;;;;;;;4.75;100.00;101489.59;5094634;28;20491;-89
2021/12/17 02:08:52;;;;;;;51.42;16.23;;;;;;;4.43;100.00;101487.28;5103416;28;20422;-89
2021/12/17 02:19:45;;;;;;;46.38;16.30;;;;;;;4.70;100.00;101488.91;5087665;28;20484;-88
2021/12/17 02:33:07;;;;;;;70.32;19.63;;;;;;;4.66;100.00;101482.41;5086493;28;20426;-88
2021/12/17 02:35:42;;;;;;;53.22;19.13;;;;;;;4.66;100.00;101474.09;5072283;28;20426;-88
2021/12/17 02:38:12;;;;;;;81.07;19.15;;;;;;;4.57;100.00;101460.28;5055569;28;20393;-89
2021/12/17 02:47:08;;;;;;;61.97;17.00;;;;;;;4.74;100.00;101476.84;5088855;28;20589;-89
2021/12/17 02:49:38;;;;;;;54.30;17.25;;;;;;;4.76;100.00;101474.56;5039300;28;20382;-88
2021/12/17 02:52:06;;;;;;;72.18;18.58;;;;;;;4.60;100.00;101473.47;5055363;28;20406;-88
2021/12/17 02:54:34;;;;;;;55.80;17.92;;;;;;;4.62;100.00;101456.53;5055391;28;20398;-88
2021/12/17 02:57:03;;;;;;;54.13;18.48;;;;;;;4.61;100.00;101461.22;5072306;28;20383;-88
2021/12/17 02:59:36;;;;;;;48.67;17.58;;;;;;;4.62;100.00;101468.38;5071820;28;20397;-89
2021/12/17 03:02:07;;;;;;;63.75;19.33;;;;;;;4.56;100.00;101452.28;5055436;28;20511;-88
2021/12/17 03:04:39;;;;;;;59.53;18.67;;;;;;;4.59;100.00;101452.44;5088927;28;20390;-87
2021/12/17 03:07:13;;;;;;;76.40;19.33;;;;;;;4.54;100.00;101449.00;5071669;28;20405;-87
2021/12/17 03:10:04;;;;;;;82.25;19.20;;;;;;;4.27;100.00;101455.66;5055542;28;20430;-88
2021/12/17 03:12:51;;;;;;;67.55;17.77;;;;;;;4.34;100.00;101461.56;5038470;28;20406;-87
2021/12/17 03:25:54;;;;;;;66.38;18.35;;;;;;;3.93;100.00;101455.63;5054697;28;20451;-88
2021/12/17 03:28:23;;;;;;;72.55;18.90;;;;;;;4.08;100.00;101457.94;5038841;28;20455;-88
2021/12/17 03:30:55;;;;;;;47.63;17.27;;;;;;;4.24;100.00;101459.09;5055005;28;20779;-88
2021/12/17 03:33:23;;;;;;;44.30;18.40;;;;;;;4.50;100.00;101465.47;5021652;28;20390;-88
2021/12/17 03:35:51;;;;;;;62.15;17.70;;;;;;;4.47;100.00;101460.56;5088064;28;20451;-88
2021/12/17 03:38:21;;;;;;;65.97;20.05;;;;;;;4.51;100.00;101457.97;5038097;28;20500;-89
2021/12/17 03:40:52;;;;;;;59.75;17.60;;;;;;;4.52;100.00;101446.56;5054730;28;20382;-89
2021/12/17 03:43:38;;;;;;;59.20;17.02;;;;;;;4.59;100.00;101466.28;5071655;28;20386;-88
2021/12/17 03:46:06;;;;;;;71.10;17.17;;;;;;;4.48;100.00;101462.22;5054472;28;20768;-88
2021/12/17 03:48:36;;;;;;;86.70;17.83;;;;;;;4.18;100.00;101463.16;5054590;28;20402;-87
2021/12/17 03:51:05;;;;;;;87.25;17.85;;;;;;;4.09;100.00;101458.75;5071167;28;20394;-88
2021/12/17 03:57:18;;;;;;;47.42;16.75;;;;;;;4.25;100.00;101457.97;5068936;28;20888;-88
2021/12/17 03:59:49;;;;;;;58.45;17.42;;;;;;;4.30;100.00;101455.03;5071692;28;20452;-88
2021/12/17 04:02:21;;;;;;;57.23;17.50;;;;;;;4.45;100.00;101468.41;5070936;28;20498;-88
2021/12/17 04:04:49;;;;;;;64.80;16.73;;;;;;;4.43;100.00;101467.09;5053611;28;20394;-88
2021/12/17 04:07:35;;;;;;;70.78;16.38;;;;;;;4.53;100.00;101477.84;5070979;28;20896;-88
2021/12/17 04:10:08;;;;;;;111.07;17.63;;;;;;;4.00;100.00;101477.28;5073310;28;20454;-89
2021/12/17 04:15:28;;;;;;;87.43;16.55;;;;;;;3.95;100.00;101458.06;5074341;28;20924;-88
2021/12/17 04:17:58;;;;;;;48.30;15.95;;;;;;;4.15;100.00;101479.59;5057711;28;20479;-88
2021/12/17 04:20:24;;;;;;;120.45;17.55;;;;;;;3.92;100.00;101476.13;5074253;28;20486;-88
2021/12/17 04:22:52;;;;;;;69.78;16.65;;;;;;;4.00;100.00;101450.44;5090904;28;20424;-88
2021/12/17 04:25:22;;;;;;;43.65;15.13;;;;;;;4.11;100.00;101457.28;5073553;28;20432;-88
2021/12/17 04:27:53;;;;;;;95.83;16.63;;;;;;;3.34;100.00;101464.53;5072649;28;21613;-87
2021/12/17 04:30:22;;;;;;;31.88;15.50;;;;;;;3.88;100.00;101461.31;5073805;28;20431;-79
2021/12/17 04:32:49;;;;;;;43.97;16.00;;;;;;;4.08;100.00;101454.34;5090808;28;20899;-87
2021/12/17 04:35:17;;;;;;;66.75;16.30;;;;;;;4.12;100.00;101469.97;5090744;28;20460;-87
2021/12/17 04:37:49;;;;;;;48.25;16.15;;;;;;;4.07;100.00;101456.31;5075167;28;20400;-85
2021/12/17 04:40:18;;;;;;;52.70;15.25;;;;;;;4.16;100.00;101454.38;5090755;28;20391;-87
2021/12/17 04:45:21;;;;;;;42.70;13.30;;;;;;;3.89;100.00;101437.22;5074136;28;20384;-86
2021/12/17 04:59:29;;;;;;;43.90;13.63;;;;;;;3.85;100.00;101452.84;5087323;28;20477;-87
2021/12/17 05:02:02;;;;;;;59.58;15.20;;;;;;;3.42;100.00;101455.47;5053793;28;20396;-88
2021/12/17 05:04:37;;;;;;;47.03;15.68;;;;;;;3.49;100.00;101464.94;5053838;28;20390;-87
2021/12/17 05:07:07;;;;;;;59.65;15.18;;;;;;;3.44;100.00;101458.72;5053680;28;20402;-87
2021/12/17 05:09:46;;;;;;;90.82;15.98;;;;;;;3.09;100.00;101457.72;5053671;28;20394;-88
2021/12/17 05:20:28;;;;;;;23.03;13.50;;;;;;;3.79;100.00;101466.00;5091088;28;20390;-88
2021/12/17 05:23:00;;;;;;;30.98;14.15;;;;;;;3.77;100.00;101459.16;5057602;28;20390;-87
2021/12/17 05:25:29;;;;;;;47.38;13.90;;;;;;;3.59;100.00;101467.41;5057104;28;21073;-87
2021/12/17 05:28:01;;;;;;;46.80;14.55;;;;;;;3.28;100.00;101454.75;5040283;28;20496;-87
2021/12/17 05:30:34;;;;;;;29.73;13.27;;;;;;;3.45;100.00;101465.88;5073718;28;20453;-87
2021/12/17 05:33:02;;;;;;;27.00;13.37;;;;;;;3.48;100.00;101449.47;5057288;28;20421;-87
2021/12/17 05:35:31;;;;;;;34.45;14.65;;;;;;;3.54;100.00;101466.72;5056349;28;21430;-87
2021/12/17 05:38:00;;;;;;;32.75;13.45;;;;;;;3.71;100.00;101470.38;5073573;28;20431;-88
2021/12/17 05:40:28;;;;;;;23.60;12.98;;;;;;;3.77;100.00;101484.88;5057085;28;20519;-87
2021/12/17 05:43:00;;;;;;;29.13;13.75;;;;;;;3.83;100.00;101485.53;5073894;28;20390;-87
2021/12/17 05:45:48;;;;;;;25.25;12.98;;;;;;;3.77;100.00;101465.53;5056681;28;21017;-87
2021/12/17 05:48:21;;;;;;;36.70;12.87;;;;;;;3.40;100.00;101490.88;5073199;28;20402;-87
2021/12/17 05:50:52;;;;;;;33.83;12.52;;;;;;;3.56;100.00;101467.22;5073319;28;20425;-87
2021/12/17 05:53:20;;;;;;;31.60;12.63;;;;;;;3.59;100.00;101461.88;5073642;28;20398;-87
2021/12/17 05:55:49;;;;;;;26.87;13.00;;;;;;;3.92;100.00;101492.75;5056433;28;20404;-88
2021/12/17 05:58:17;;;;;;;79.13;14.23;;;;;;;3.52;100.00;101472.59;5056546;28;20401;-87
2021/12/17 06:00:46;;;;;;;66.97;13.93;;;;;;;3.60;100.00;101476.53;5056669;28;20443;-87
2021/12/17 06:03:35;;;;;;;36.13;12.20;;;;;;;3.66;100.00;101478.78;5073033;28;20394;-88
2021/12/17 06:06:09;;;;;;;51.63;12.48;;;;;;;3.60;100.00;101471.78;5074281;28;20398;-88
2021/12/17 06:08:36;;;;;;;54.85;13.10;;;;;;;3.36;100.00;101468.59;5073200;28;20402;-87
2021/12/17 06:11:03;;;;;;;43.83;12.25;;;;;;;3.51;100.00;101484.75;5089892;28;20386;-88
2021/12/17 06:13:31;;;;;;;29.88;13.32;;;;;;;3.50;100.00;101476.78;5073229;28;20401;-88
2021/12/17 06:15:59;;;;;;;47.50;12.55;;;;;;;3.38;100.00;101493.16;5056134;28;20402;-88
2021/12/17 06:18:28;;;;;;;37.22;12.10;;;;;;;3.45;100.00;101486.03;5039664;28;20401;-87
2021/12/17 06:20:55;;;;;;;25.73;12.07;;;;;;;3.63;100.00;101484.19;5056365;28;20477;-88
2021/12/17 06:23:23;;;;;;;24.58;11.52;;;;;;;3.62;100.00;101497.16;5056488;28;20410;-87
2021/12/17 06:25:51;;;;;;;30.03;12.80;;;;;;;3.67;100.00;101491.50;5056222;28;20437;-87
2021/12/17 06:28:19;;;;;;;34.50;12.90;;;;;;;3.70;100.00;101487.28;5055473;28;20409;-87
2021/12/17 06:30:50;;;;;;;32.40;14.15;;;;;;;3.68;100.00;101497.88;5055711;28;20401;-87
2021/12/17 06:33:25;;;;;;;46.05;13.88;;;;;;;3.52;100.00;101488.34;5040795;28;20404;-87
2021/12/17 06:35:53;;;;;;;28.58;13.73;;;;;;;3.49;100.00;101478.75;5055555;28;20489;-87
2021/12/17 06:38:20;;;;;;;36.17;14.80;;;;;;;3.48;100.00;101482.63;5055674;28;20761;-86
2021/12/17 06:40:53;;;;;;;30.10;13.23;;;;;;;3.17;100.00;101489.28;5056155;28;20382;-86
2021/12/17 06:43:27;;;;;;;29.45;13.55;;;;;;;3.32;100.00;101491.66;5071693;28;21605;-87
2021/12/17 06:46:04;;;;;;;37.03;13.75;;;;;;;3.26;100.00;101490.16;5072268;28;20421;-87
2021/12/17 06:48:32;;;;;;;20.30;11.93;;;;;;;3.39;100.00;101483.75;5072212;28;20398;-88
2021/12/17 07:17:24;;;;;;;35.13;14.20;;;;;;;3.27;100.00;101503.66;5014332;28;20401;-87
2021/12/17 07:23:15;;;;;;;37.58;14.68;;;;;;;3.53;100.00;101506.56;4997605;28;20406;-85
2021/12/17 07:32:18;;;;;;;53.70;13.88;;;;;;;3.26;100.00;101501.22;5014367;28;20831;-84
2021/12/17 07:34:07;;;;;;;46.95;14.27;;;;;;;3.49;100.00;101516.63;4993674;28;20500;-85
2021/12/17 07:36:56;;;;;;;31.02;14.13;;;;;;;3.43;100.00;101513.19;5030294;28;21034;-85
2021/12/17 07:39:27;;;;;;;30.33;13.73;;;;;;;3.59;100.00;101521.88;5034488;28;20439;-86
2021/12/17 07:42:25;;;;;;;42.40;15.10;;;;;;;3.43;100.00;101515.13;5058082;28;20417;-85
2021/12/17 07:44:55;;;;;;;38.95;15.52;;;;;;;3.36;100.00;101500.97;5054842;28;20409;-86
2021/12/17 07:47:42;;;;;;;52.58;17.40;;;;;;;3.48;100.00;101531.59;5073752;28;20383;-86
2021/12/17 07:50:24;;;;;;;45.78;14.50;;;;;;;3.39;100.00;101523.22;5056627;28;20389;-85
2021/12/17 07:53:11;;;;;;;33.35;15.23;;;;;;;3.50;100.00;101524.59;5056997;28;20757;-87
2021/12/17 07:56:27;;;;;;;43.30;15.57;;;;;;;3.61;100.00;101520.44;5071704;28;20394;-82
2021/12/17 07:59:01;;;;;;;53.00;16.48;;;;;;;3.63;100.00;101534.75;5071436;28;20706;-80
2021/12/17 08:01:29;;;;;;;38.83;14.20;;;;;;;3.70;100.00;101540.66;5054692;28;20393;-79
2021/12/17 08:03:57;;;;;;;51.13;15.27;;;;;;;3.85;100.00;101546.91;5054446;28;20735;-78
2021/12/17 08:06:39;;;;;;;48.17;14.35;;;;;;;3.61;100.00;101530.66;5071111;28;20844;-78
2021/12/17 08:09:14;;;;;;;54.60;14.25;;;;;;;3.50;100.00;101540.38;5039466;28;20398;-79
2021/12/17 08:11:43;;;;;;;46.50;15.52;;;;;;;3.67;100.00;101546.00;5071407;28;20477;-79
2021/12/17 08:14:16;;;;;;;77.82;16.90;;;;;;;3.56;100.00;101545.44;5054384;28;20416;-79
2021/12/17 08:16:59;;;;;;;52.63;16.50;;;;;;;3.83;100.00;101563.81;5087696;28;20489;-78
2021/12/17 08:25:15;;;;;;;92.38;53.22;;;;;;;3.88;100.00;101560.88;5072288;28;20853;-79
2021/12/17 08:28:05;;;;;;;81.60;18.67;;;;;;;3.89;100.00;101548.72;5087422;28;20463;-78
2021/12/17 08:30:39;;;;;;;89.25;18.52;;;;;;;3.57;100.00;101546.28;5088333;28;20389;-79
2021/12/17 08:33:20;;;;;;;63.22;18.55;;;;;;;3.59;100.00;101555.03;5090619;28;20410;-79
2021/12/17 08:35:50;;;;;;;54.40;18.55;;;;;;;3.62;100.00;101549.72;5091011;28;20863;-79
2021/12/17 08:38:25;;;;;;;49.10;16.63;;;;;;;3.53;100.00;101556.31;5091556;28;20394;-79
2021/12/17 08:40:54;;;;;;;83.07;17.40;;;;;;;3.55;100.00;101562.34;5090854;28;20384;-80
2021/12/17 08:43:23;;;;;;;34.88;15.68;;;;;;;3.84;100.00;101557.13;5074003;28;20396;-80
2021/12/17 08:45:54;;;;;;;26.25;14.55;;;;;;;4.12;100.00;101558.53;5074442;28;20761;-81
2021/12/17 08:48:25;;;;;;;26.15;14.82;;;;;;;4.23;100.00;101570.94;5074974;28;20732;-79
2021/12/17 08:51:11;;;;;;;27.15;16.02;;;;;;;4.26;100.00;101577.78;5092298;28;20419;-81
2021/12/17 08:53:39;;;;;;;28.50;15.68;;;;;;;4.27;100.00;101560.84;5094356;28;20854;-81
2021/12/17 08:56:07;;;;;;;28.08;16.33;;;;;;;4.20;100.00;101556.91;5061805;28;20384;-81
2021/12/17 08:58:35;;;;;;;27.65;15.23;;;;;;;4.21;100.00;101556.59;5094776;28;20388;-81
2021/12/17 09:01:04;;;;;;;27.70;14.60;;;;;;;4.43;100.00;101570.34;5094966;28;20400;-81
2021/12/17 09:03:33;;;;;;;28.77;15.57;;;;;;;4.34;100.00;101566.75;5077453;28;20397;-81
2021/12/17 09:06:09;;;;;;;26.15;14.50;;;;;;;4.60;100.00;101569.56;5094870;28;20906;-80
2021/12/17 09:08:43;;;;;;;23.63;13.48;;;;;;;4.58;100.00;101560.75;5093568;28;20400;-81
2021/12/17 09:11:11;;;;;;;22.42;13.60;;;;;;;4.50;100.00;101562.38;5093888;28;20481;-81
2021/12/17 09:13:49;;;;;;;25.65;13.95;;;;;;;4.56;100.00;101561.06;5077013;28;20457;-80
2021/12/17 09:16:20;;;;;;;23.58;13.57;;;;;;;4.45;100.00;101562.53;5094172;28;20866;-81
2021/12/17 09:18:54;;;;;;;21.00;13.05;;;;;;;4.50;100.00;101565.13;5094322;28;20377;-82
2021/12/17 09:21:50;;;;;;;23.07;13.90;;;;;;;4.45;100.00;101558.94;5077500;28;20400;-82
2021/12/17 09:24:30;;;;;;;34.10;20.90;;;;;;;4.49;100.00;101563.53;5077200;28;20476;-81
2021/12/17 09:27:18;;;;;;;21.98;12.25;;;;;;;4.51;100.00;101552.94;5083976;28;20399;-81
2021/12/17 09:30:14;;;;;;;23.15;12.45;;;;;;;4.46;100.00;101561.41;5093916;28;20392;-81
2021/12/17 09:32:42;;;;;;;20.13;12.25;;;;;;;4.35;100.00;101579.44;5094041;28;20389;-79
2021/12/17 09:35:12;;;;;;;20.02;12.95;;;;;;;4.38;100.00;101578.78;5077485;28;20396;-80
2021/12/17 09:37:40;;;;;;;24.60;13.75;;;;;;;4.36;100.00;101578.28;5093668;28;20415;-81
2021/12/17 09:40:11;;;;;;;24.63;13.82;;;;;;;4.31;100.00;101584.00;5094729;28;20380;-79
2021/12/17 09:42:41;;;;;;;21.90;13.13;;;;;;;4.52;100.00;101573.94;5093370;28;20403;-82
2021/12/17 09:45:09;;;;;;;23.30;12.95;;;;;;;4.56;100.00;101591.53;5092939;28;20411;-79
2021/12/17 09:47:36;;;;;;;21.75;11.93;;;;;;;4.53;100.00;101580.31;5092963;28;20859;-80
2021/12/17 09:50:04;;;;;;;90.03;16.47;;;;;;;4.32;100.00;101582.84;5092725;28;20859;-80
2021/12/17 09:52:31;;;;;;;30.05;13.02;;;;;;;4.31;100.00;101584.00;5089841;28;20404;-79
2021/12/17 09:54:58;;;;;;;20.90;12.55;;;;;;;4.33;100.00;101578.16;5094220;28;20881;-80
2021/12/17 09:57:35;;;;;;;19.58;11.85;;;;;;;4.39;100.00;101585.97;5092592;28;20385;-82
2021/12/17 10:00:07;;;;;;;21.88;13.57;;;;;;;4.51;100.00;101591.72;5093726;28;20388;-82
2021/12/17 10:02:43;;;;;;;19.48;13.20;;;;;;;4.49;100.00;101571.81;5091576;28;20399;-80
2021/12/17 10:05:21;;;;;;;32.13;13.80;;;;;;;4.03;100.00;101593.66;5073524;28;20385;-79
2021/12/17 10:08:09;;;;;;;21.92;13.70;;;;;;;4.39;100.00;101574.09;5088042;28;20409;-81
2021/12/17 10:10:42;;;;;;;20.45;12.65;;;;;;;4.53;100.00;101583.09;5093803;28;20389;-79
2021/12/17 10:13:12;;;;;;;17.23;10.98;;;;;;;4.50;100.00;101587.28;5093953;28;20380;-79
2021/12/17 10:15:46;;;;;;;18.52;11.40;;;;;;;4.55;100.00;101592.69;5094044;28;20863;-81
2021/12/17 10:18:14;;;;;;;21.65;14.32;;;;;;;4.54;100.00;101580.00;5092576;28;20837;-80
2021/12/17 10:20:58;;;;;;;17.63;11.40;;;;;;;4.55;100.00;101586.31;5092537;28;20433;-79
2021/12/17 10:23:28;;;;;;;19.53;11.03;;;;;;;4.57;100.00;101592.38;5093112;28;20843;-79
2021/12/17 10:25:56;;;;;;;18.02;10.70;;;;;;;4.49;100.00;101584.84;5093538;28;20481;-79
2021/12/17 10:28:25;;;;;;;16.70;9.95;;;;;;;4.17;100.00;101586.06;5092887;28;20396;-80
2021/12/17 10:30:55;;;;;;;16.08;10.90;;;;;;;4.19;100.00;101585.75;5093980;28;20380;-77
2021/12/17 10:33:27;;;;;;;15.65;10.20;;;;;;;4.37;100.00;101576.34;5092734;28;20879;-78
2021/12/17 10:36:02;;;;;;;17.65;10.40;;;;;;;4.52;100.00;101587.78;5091266;28;20396;-80
2021/12/17 10:38:29;;;;;;;19.58;11.18;;;;;;;4.61;100.00;101576.72;5093036;28;20395;-78
2021/12/17 10:41:10;;;;;;;18.92;11.07;;;;;;;4.33;100.00;101581.72;5091893;28;20486;-80
2021/12/17 10:43:44;;;;;;;17.83;10.75;;;;;;;4.76;100.00;101581.78;5093085;28;20388;-79
2021/12/17 10:46:30;;;;;;;13.82;9.20;;;;;;;5.13;100.00;101581.97;5092361;28;20890;-80
2021/12/17 10:54:13;;;;;;;15.18;9.73;;;;;;;5.30;100.00;101572.84;5093576;28;20850;-80
2021/12/17 10:57:07;;;;;;;16.92;11.82;;;;;;;5.52;100.00;101576.22;5092188;28;20754;-80
2021/12/17 10:59:36;;;;;;;16.05;9.75;;;;;;;5.39;100.00;101568.09;5092482;28;20704;-78
2021/12/17 11:02:10;;;;;;;15.88;10.30;;;;;;;4.86;100.00;101573.19;5092191;28;20381;-81
2021/12/17 11:04:41;;;;;;;16.15;9.88;;;;;;;5.35;100.00;101579.00;5092024;28;20407;-81
2021/12/17 11:07:14;;;;;;;14.00;9.60;;;;;;;5.63;100.00;101560.81;5075428;28;20393;-80
2021/12/17 11:09:50;;;;;;;15.00;9.88;;;;;;;5.63;100.00;101581.41;5092244;28;20388;-78
2021/12/17 11:12:28;;;;;;;12.43;8.73;;;;;;;5.13;100.00;101557.03;5092135;28;20387;-81
2021/12/17 11:15:10;;;;;;;14.25;8.90;;;;;;;5.74;100.00;101560.50;5093118;28;20433;-81
2021/12/17 11:17:39;;;;;;;15.80;9.32;;;;;;;6.01;100.00;101569.22;5075485;28;20411;-83
2021/12/17 11:20:14;;;;;;;15.48;9.30;;;;;;;5.97;100.00;101559.94;5093174;28;20391;-83
2021/12/17 11:22:44;;;;;;;19.15;12.85;;;;;;;6.06;100.00;101571.00;5075260;28;20392;-82
2021/12/17 11:25:19;;;;;;;15.13;10.57;;;;;;;6.21;100.00;101556.56;5091689;28;20392;-81
2021/12/17 11:27:47;;;;;;;20.25;15.82;;;;;;;6.33;100.00;101553.88;5093034;28;20441;-81
2021/12/17 11:30:35;;;;;;;30.85;22.02;;;;;;;6.56;100.00;101544.06;5092590;28;20400;-80
2021/12/17 11:33:04;;;;;;;17.35;10.23;;;;;;;5.85;100.00;101553.44;5093465;28;20774;-80
2021/12/17 11:35:35;;;;;;;13.82;9.82;;;;;;;6.12;100.00;101550.25;5093374;28;20388;-80
2021/12/17 11:38:28;;;;;;;16.40;12.23;;;;;;;6.40;100.00;101568.03;5091412;28;20899;-79
2021/12/17 11:41:52;;;;;;;18.52;13.70;;;;;;;6.63;100.00;101555.47;5090703;28;20886;-80
2021/12/17 11:44:27;;;;;;;15.63;11.32;;;;;;;6.67;100.00;101553.63;5033914;28;20932;-81
2021/12/17 11:47:03;;;;;;;13.43;9.90;;;;;;;6.86;100.00;101565.91;5050394;28;20396;-83
2021/12/17 11:49:38;;;;;;;13.10;10.00;;;;;;;7.17;100.00;101554.38;5050312;28;20407;-80
2021/12/17 11:52:05;;;;;;;12.97;9.30;;;;;;;7.38;100.00;101544.00;5017385;28;20445;-81
2021/12/17 11:54:34;;;;;;;17.55;12.73;;;;;;;7.42;100.00;101539.41;5050372;28;20395;-81
2021/12/17 11:57:12;;;;;;;14.43;9.77;;;;;;;7.18;100.00;101544.88;5027649;28;20411;-81
2021/12/17 11:59:44;;;;;;;12.40;8.95;;;;;;;6.82;100.00;101541.91;5048923;28;20437;-81
2021/12/17 12:02:22;;;;;;;13.30;8.33;;;;;;;7.10;100.00;101537.44;5031471;28;20489;-81
2021/12/17 12:05:00;;;;;;;13.40;8.63;;;;;;;7.14;100.00;101547.53;5049390;28;20395;-81
2021/12/17 12:07:28;;;;;;;13.75;8.55;;;;;;;7.21;100.00;101541.41;5049534;28;20400;-81
2021/12/17 12:10:11;;;;;;;14.32;8.60;;;;;;;7.36;100.00;101552.72;5029842;28;20785;-81
2021/12/17 12:12:46;;;;;;;14.02;8.63;;;;;;;7.55;100.00;101543.84;5046640;28;20428;-81
2021/12/17 12:15:28;;;;;;;12.77;8.47;;;;;;;7.72;100.00;101534.50;5046815;28;20917;-81
2021/12/17 12:18:02;;;;;;;12.18;8.55;;;;;;;7.94;100.00;101534.84;5044836;28;20405;-79
2021/12/17 12:20:45;;;;;;;13.35;8.50;;;;;;;7.87;100.00;101534.63;5036164;28;20484;-78
2021/12/17 12:23:28;;;;;;;13.10;8.57;;;;;;;7.75;100.00;101537.41;5070297;28;20396;-78
2021/12/17 12:26:01;;;;;;;11.85;8.60;;;;;;;8.02;100.00;101531.16;5088875;28;20381;-78
2021/12/17 12:28:57;;;;;;;14.30;7.63;;;;;;;8.15;100.00;101521.63;5095396;28;20921;-78
2021/12/17 12:31:30;;;;;;;13.10;7.40;;;;;;;8.24;100.00;101527.94;5095963;28;20882;-81
2021/12/17 12:34:00;;;;;;;13.48;8.10;;;;;;;8.43;100.00;101519.81;5078346;28;20476;-82
2021/12/17 12:36:49;;;;;;;12.48;7.93;;;;;;;8.21;100.00;101525.03;5076634;28;20427;-81
2021/12/17 12:39:39;;;;;;;12.93;9.10;;;;;;;8.34;100.00;101530.25;5094906;28;20388;-81
2021/12/17 12:42:14;;;;;;;10.27;7.72;;;;;;;8.52;100.00;101514.91;5077940;28;20426;-81
2021/12/17 12:44:41;;;;;;;11.57;8.00;;;;;;;8.62;100.00;101522.78;5096246;28;20441;-80
2021/12/17 12:47:24;;;;;;;11.97;8.07;;;;;;;8.48;100.00;101519.53;5061017;28;20398;-80
2021/12/17 12:49:56;;;;;;;13.77;8.65;;;;;;;8.47;100.00;101520.72;5093344;28;20443;-78
2021/12/17 12:52:40;;;;;;;19.80;11.00;;;;;;;8.32;100.00;101501.94;5091659;28;20397;-80
2021/12/17 12:55:24;;;;;;;22.38;13.38;;;;;;;8.21;100.00;101514.66;5086748;28;20420;-75
2021/12/17 12:57:55;;;;;;;27.88;15.40;;;;;;;8.29;100.00;101524.91;5094975;28;20949;-75
2021/12/17 13:00:27;;;;;;;21.08;12.80;;;;;;;8.44;100.00;101521.41;5094832;28;20380;-75
2021/12/17 13:03:00;;;;;;;23.92;13.48;;;;;;;8.48;100.00;101516.75;5093665;28;20407;-76
2021/12/17 13:05:29;;;;;;;21.85;11.93;;;;;;;8.46;100.00;101507.97;5092249;28;20862;-76
2021/12/17 13:08:01;;;;;;;23.60;15.13;;;;;;;8.42;100.00;101506.22;5094748;28;20406;-75
2021/12/17 13:10:38;;;;;;;21.73;13.60;;;;;;;8.23;100.00;101498.47;5094217;28;20411;-79
2021/12/17 13:13:27;;;;;;;22.33;13.73;;;;;;;8.39;100.00;101510.50;5089858;28;20707;-78
2021/12/17 13:16:14;;;;;;;20.90;12.38;;;;;;;8.20;100.00;101509.44;5090665;28;20399;-78
2021/12/17 13:24:13;;;;;;;22.67;11.30;;;;;;;7.98;100.00;101496.00;5088303;28;20404;-78
2021/12/17 13:26:53;;;;;;;21.13;12.10;;;;;;;8.17;100.00;101505.41;5093084;28;20488;-78
2021/12/17 13:29:26;;;;;;;20.30;11.73;;;;;;;8.37;100.00;101521.19;5094760;28;20400;-76
2021/12/17 13:32:20;;;;;;;19.88;11.82;;;;;;;8.44;100.00;101527.00;5093264;28;20893;-80
2021/12/17 13:34:49;;;;;;;20.50;12.02;;;;;;;8.57;100.00;101525.78;5093968;28;20400;-78
2021/12/17 13:37:24;;;;;;;25.08;12.65;;;;;;;8.66;100.00;101525.69;5076621;28;20396;-80
2021/12/17 13:39:55;;;;;;;22.63;12.57;;;;;;;8.79;100.00;101527.25;5084252;28;20407;-75
2021/12/17 13:42:26;;;;;;;23.05;13.20;;;;;;;8.81;100.00;101530.53;5094096;28;20858;-74
2021/12/17 13:45:01;;;;;;;25.95;13.38;;;;;;;8.81;100.00;101524.94;5109458;28;20399;-78
2021/12/17 13:47:40;;;;;;;22.63;12.33;;;;;;;8.77;100.00;101522.03;5082180;28;20449;-77
2021/12/17 13:50:19;;;;;;;23.37;12.57;;;;;;;8.88;100.00;101541.88;5086817;28;20465;-79
2021/12/17 13:53:05;;;;;;;28.23;14.20;;;;;;;8.78;100.00;101520.88;5090217;28;20384;-79
2021/12/17 13:55:34;;;;;;;24.85;14.05;;;;;;;8.75;100.00;101532.72;5090679;28;20389;-79
2021/12/17 13:58:08;;;;;;;23.63;13.70;;;;;;;8.74;100.00;101514.38;5090855;28;20384;-79
2021/12/17 14:00:39;;;;;;;25.20;15.00;;;;;;;8.95;100.00;101530.94;5092720;28;20387;-84
2021/12/17 14:03:13;;;;;;;28.00;14.25;;;;;;;9.14;100.00;101531.91;5091180;28;20389;-85
2021/12/17 14:05:48;;;;;;;24.05;14.20;;;;;;;9.02;100.00;101520.81;5092410;28;20376;-89
2021/12/17 14:08:22;;;;;;;24.50;14.95;;;;;;;9.04;100.00;101518.47;5074126;28;20395;-85
2021/12/17 14:10:53;;;;;;;24.23;15.05;;;;;;;9.02;100.00;101517.19;5093181;28;20399;-85
2021/12/17 14:13:26;;;;;;;27.67;18.70;;;;;;;8.90;100.00;101526.44;5093107;28;20482;-81
2021/12/17 14:16:45;;;;;;;;;;;;;;;;;;;;;
2021/12/17 14:20:39;;;;;;;;;;;;;;;;;;;;;
2021/12/17 14:24:32;;;;;;;31.25;21.58;;;;;;;9.22;100.00;101518.16;4896609;29;20473;-87
2021/12/17 14:26:59;;;;;;;34.67;21.65;;;;;;;8.94;100.00;101518.97;4894723;29;20418;-86
2021/12/17 14:29:28;;;;;;;32.88;22.45;;;;;;;8.78;100.00;101512.50;4917593;29;20497;-85
2021/12/17 14:31:59;;;;;;;31.50;22.23;;;;;;;9.03;100.00;101527.19;4909838;29;20417;-86
2021/12/17 14:34:26;;;;;;;35.20;23.52;;;;;;;9.05;100.00;101522.88;4917697;29;20418;-86
2021/12/17 14:37:02;;;;;;;31.75;23.17;;;;;;;9.29;100.00;101526.72;4918412;29;20421;-87
2021/12/17 14:39:34;;;;;;;35.80;23.20;;;;;;;9.02;100.00;101531.97;4900376;29;20418;-86
2021/12/17 14:42:04;;;;;;;37.30;25.75;;;;;;;8.96;100.00;101532.56;4934084;29;20469;-87
2021/12/17 14:45:17;;;;;;;39.83;27.20;;;;;;;8.74;100.00;101530.28;4908729;29;20432;-88
2021/12/17 14:47:52;;;;;;;39.67;26.02;;;;;;;8.87;100.00;101524.34;4910586;29;20431;-87